sensor_id;sensor_type;location;lat;lon;timestamp;temperature;humidity
68378;DHT22;55322;48.146;11.516;2024-02-14T00:01:28;2.28;85.37
68378;DHT22;55322;48.146;11.516;2024-02-14T00:03:54;2.28;85.11
68378;DHT22;55322;48.146;11.516;2024-02-14T00:06:19;2.31;85.01
68378;DHT22;55322;48.146;11.516;2024-02-14T00:08:44;2.35;84.78
68378;DHT22;55322;48.146;11.516;2024-02-14T00:11:10;2.32;84.77
68378;DHT22;55322;48.146;11.516;2024-02-14T00:13:35;2.29;84.80
68378;DHT22;55322;48.146;11.516;2024-02-14T00:16:01;2.29;84.73
68378;DHT22;55322;48.146;11.516;2024-02-14T00:18:27;2.32;84.69
68378;DHT22;55322;48.146;11.516;2024-02-14T00:20:53;2.28;84.80
68378;DHT22;55322;48.146;11.516;2024-02-14T00:23:18;2.31;84.94
68378;DHT22;55322;48.146;11.516;2024-02-14T00:25:44;2.44;84.66
68378;DHT22;55322;48.146;11.516;2024-02-14T00:28:09;2.56;84.42
68378;DHT22;55322;48.146;11.516;2024-02-14T00:30:34;2.62;83.85
68378;DHT22;55322;48.146;11.516;2024-02-14T00:33:00;2.66;83.93
68378;DHT22;55322;48.146;11.516;2024-02-14T00:35:26;2.72;83.69
68378;DHT22;55322;48.146;11.516;2024-02-14T00:37:51;2.76;83.61
68378;DHT22;55322;48.146;11.516;2024-02-14T00:40:17;2.82;82.98
68378;DHT22;55322;48.146;11.516;2024-02-14T00:42:43;2.92;82.33
68378;DHT22;55322;48.146;11.516;2024-02-14T00:45:08;3.00;81.61
68378;DHT22;55322;48.146;11.516;2024-02-14T00:47:34;3.06;82.04
68378;DHT22;55322;48.146;11.516;2024-02-14T00:50:00;3.07;81.54
68378;DHT22;55322;48.146;11.516;2024-02-14T00:52:26;3.09;81.53
68378;DHT22;55322;48.146;11.516;2024-02-14T00:54:51;3.06;82.12
68378;DHT22;55322;48.146;11.516;2024-02-14T00:57:16;3.04;82.12
68378;DHT22;55322;48.146;11.516;2024-02-14T00:59:43;3.10;81.85
68378;DHT22;55322;48.146;11.516;2024-02-14T01:02:08;3.13;82.18
68378;DHT22;55322;48.146;11.516;2024-02-14T01:04:34;3.16;82.37
68378;DHT22;55322;48.146;11.516;2024-02-14T01:07:02;3.09;82.93
68378;DHT22;55322;48.146;11.516;2024-02-14T01:09:27;3.06;83.36
68378;DHT22;55322;48.146;11.516;2024-02-14T01:11:53;3.02;83.57
68378;DHT22;55322;48.146;11.516;2024-02-14T01:14:18;3.02;83.17
68378;DHT22;55322;48.146;11.516;2024-02-14T01:16:45;3.06;82.82
68378;DHT22;55322;48.146;11.516;2024-02-14T01:19:11;3.07;82.46
68378;DHT22;55322;48.146;11.516;2024-02-14T01:21:37;3.19;81.55
68378;DHT22;55322;48.146;11.516;2024-02-14T01:24:02;3.22;81.64
68378;DHT22;55322;48.146;11.516;2024-02-14T01:26:30;3.31;80.98
68378;DHT22;55322;48.146;11.516;2024-02-14T01:28:55;3.38;80.89
68378;DHT22;55322;48.146;11.516;2024-02-14T01:31:21;3.34;81.04
68378;DHT22;55322;48.146;11.516;2024-02-14T01:33:47;3.33;79.71
68378;DHT22;55322;48.146;11.516;2024-02-14T01:36:13;3.37;80.02
68378;DHT22;55322;48.146;11.516;2024-02-14T01:38:38;3.35;79.98
68378;DHT22;55322;48.146;11.516;2024-02-14T01:41:05;3.37;80.73
68378;DHT22;55322;48.146;11.516;2024-02-14T01:43:30;3.40;80.25
68378;DHT22;55322;48.146;11.516;2024-02-14T01:46:04;3.38;81.03
68378;DHT22;55322;48.146;11.516;2024-02-14T01:48:30;3.40;80.73
68378;DHT22;55322;48.146;11.516;2024-02-14T01:50:55;3.37;80.77
68378;DHT22;55322;48.146;11.516;2024-02-14T01:53:21;3.44;79.96
68378;DHT22;55322;48.146;11.516;2024-02-14T01:55:46;3.47;79.90
68378;DHT22;55322;48.146;11.516;2024-02-14T01:58:12;3.43;80.48
68378;DHT22;55322;48.146;11.516;2024-02-14T02:00:38;3.40;80.34
68378;DHT22;55322;48.146;11.516;2024-02-14T02:03:03;3.38;80.40
68378;DHT22;55322;48.146;11.516;2024-02-14T02:05:29;3.40;80.55
68378;DHT22;55322;48.146;11.516;2024-02-14T02:07:54;3.43;79.81
68378;DHT22;55322;48.146;11.516;2024-02-14T02:10:20;3.48;79.54
68378;DHT22;55322;48.146;11.516;2024-02-14T02:12:47;3.53;80.10
68378;DHT22;55322;48.146;11.516;2024-02-14T02:15:13;3.57;78.65
68378;DHT22;55322;48.146;11.516;2024-02-14T02:17:40;3.60;78.61
68378;DHT22;55322;48.146;11.516;2024-02-14T02:20:06;3.65;78.64
68378;DHT22;55322;48.146;11.516;2024-02-14T02:22:34;3.68;77.94
68378;DHT22;55322;48.146;11.516;2024-02-14T02:25:03;3.61;78.85
68378;DHT22;55322;48.146;11.516;2024-02-14T02:27:32;3.53;78.19
68378;DHT22;55322;48.146;11.516;2024-02-14T02:29:59;3.54;78.79
68378;DHT22;55322;48.146;11.516;2024-02-14T02:32:25;3.54;79.22
68378;DHT22;55322;48.146;11.516;2024-02-14T02:34:51;3.58;78.07
68378;DHT22;55322;48.146;11.516;2024-02-14T02:37:16;3.61;78.05
68378;DHT22;55322;48.146;11.516;2024-02-14T02:39:44;3.58;78.63
68378;DHT22;55322;48.146;11.516;2024-02-14T02:42:09;3.58;77.64
68378;DHT22;55322;48.146;11.516;2024-02-14T02:44:37;3.57;78.08
68378;DHT22;55322;48.146;11.516;2024-02-14T02:47:03;3.58;77.87
68378;DHT22;55322;48.146;11.516;2024-02-14T02:49:28;3.54;78.44
68378;DHT22;55322;48.146;11.516;2024-02-14T02:51:54;3.53;78.46
68378;DHT22;55322;48.146;11.516;2024-02-14T02:54:20;3.53;78.64
68378;DHT22;55322;48.146;11.516;2024-02-14T02:56:51;3.51;78.41
68378;DHT22;55322;48.146;11.516;2024-02-14T02:59:16;3.53;78.29
68378;DHT22;55322;48.146;11.516;2024-02-14T03:01:42;3.53;78.74
68378;DHT22;55322;48.146;11.516;2024-02-14T03:04:07;3.54;78.58
68378;DHT22;55322;48.146;11.516;2024-02-14T03:06:33;3.51;78.23
68378;DHT22;55322;48.146;11.516;2024-02-14T03:08:59;3.53;77.64
68378;DHT22;55322;48.146;11.516;2024-02-14T03:11:24;3.58;77.93
68378;DHT22;55322;48.146;11.516;2024-02-14T03:13:52;3.61;77.60
68378;DHT22;55322;48.146;11.516;2024-02-14T03:16:18;3.63;77.52
68378;DHT22;55322;48.146;11.516;2024-02-14T03:18:44;3.60;77.71
68378;DHT22;55322;48.146;11.516;2024-02-14T03:21:09;3.55;77.59
68378;DHT22;55322;48.146;11.516;2024-02-14T03:23:37;3.57;77.22
68378;DHT22;55322;48.146;11.516;2024-02-14T03:26:02;3.61;77.31
68378;DHT22;55322;48.146;11.516;2024-02-14T03:28:32;3.61;77.59
68378;DHT22;55322;48.146;11.516;2024-02-14T03:30:58;3.65;77.77
68378;DHT22;55322;48.146;11.516;2024-02-14T03:33:23;3.67;77.91
68378;DHT22;55322;48.146;11.516;2024-02-14T03:35:49;3.67;77.10
68378;DHT22;55322;48.146;11.516;2024-02-14T03:38:27;3.64;77.86
68378;DHT22;55322;48.146;11.516;2024-02-14T03:40:53;3.61;77.95
68378;DHT22;55322;48.146;11.516;2024-02-14T03:43:18;3.55;77.60
68378;DHT22;55322;48.146;11.516;2024-02-14T03:45:43;3.51;77.47
68378;DHT22;55322;48.146;11.516;2024-02-14T03:48:09;3.50;78.01
68378;DHT22;55322;48.146;11.516;2024-02-14T03:50:38;3.47;78.16
68378;DHT22;55322;48.146;11.516;2024-02-14T03:53:03;3.45;78.00
68378;DHT22;55322;48.146;11.516;2024-02-14T03:55:29;3.40;77.89
68378;DHT22;55322;48.146;11.516;2024-02-14T03:57:55;3.34;77.85
68378;DHT22;55322;48.146;11.516;2024-02-14T04:00:21;3.31;77.79
68378;DHT22;55322;48.146;11.516;2024-02-14T04:02:47;3.26;77.96
68378;DHT22;55322;48.146;11.516;2024-02-14T04:05:14;3.19;78.04
68378;DHT22;55322;48.146;11.516;2024-02-14T04:07:39;3.13;77.99
68378;DHT22;55322;48.146;11.516;2024-02-14T04:10:05;3.10;78.38
68378;DHT22;55322;48.146;11.516;2024-02-14T04:12:31;3.03;78.35
68378;DHT22;55322;48.146;11.516;2024-02-14T04:14:57;3.06;78.65
68378;DHT22;55322;48.146;11.516;2024-02-14T04:17:22;3.00;78.53
68378;DHT22;55322;48.146;11.516;2024-02-14T04:19:49;2.97;78.44
68378;DHT22;55322;48.146;11.516;2024-02-14T04:22:14;2.96;78.36
68378;DHT22;55322;48.146;11.516;2024-02-14T04:24:39;2.93;78.41
68378;DHT22;55322;48.146;11.516;2024-02-14T04:27:05;2.92;78.28
68378;DHT22;55322;48.146;11.516;2024-02-14T04:29:30;2.86;78.72
68378;DHT22;55322;48.146;11.516;2024-02-14T04:32:01;2.88;79.14
68378;DHT22;55322;48.146;11.516;2024-02-14T04:34:27;2.85;79.18
68378;DHT22;55322;48.146;11.516;2024-02-14T04:36:52;2.90;78.79
68378;DHT22;55322;48.146;11.516;2024-02-14T04:39:18;2.96;78.53
68378;DHT22;55322;48.146;11.516;2024-02-14T04:41:44;2.99;78.44
68378;DHT22;55322;48.146;11.516;2024-02-14T04:44:09;3.06;78.06
68378;DHT22;55322;48.146;11.516;2024-02-14T04:46:35;3.09;77.70
68378;DHT22;55322;48.146;11.516;2024-02-14T04:49:04;3.17;77.56
68378;DHT22;55322;48.146;11.516;2024-02-14T04:51:30;3.14;76.94
68378;DHT22;55322;48.146;11.516;2024-02-14T04:53:56;3.16;76.55
68378;DHT22;55322;48.146;11.516;2024-02-14T04:56:28;3.14;77.22
68378;DHT22;55322;48.146;11.516;2024-02-14T04:58:54;3.16;77.44
68378;DHT22;55322;48.146;11.516;2024-02-14T05:01:20;3.20;77.96
68378;DHT22;55322;48.146;11.516;2024-02-14T05:03:45;3.22;78.45
68378;DHT22;55322;48.146;11.516;2024-02-14T05:06:11;3.23;77.90
68378;DHT22;55322;48.146;11.516;2024-02-14T05:08:36;3.22;77.56
68378;DHT22;55322;48.146;11.516;2024-02-14T05:11:01;3.20;77.16
68378;DHT22;55322;48.146;11.516;2024-02-14T05:13:29;3.27;76.85
68378;DHT22;55322;48.146;11.516;2024-02-14T05:15:54;3.27;76.92
68378;DHT22;55322;48.146;11.516;2024-02-14T05:18:19;3.27;76.92
68378;DHT22;55322;48.146;11.516;2024-02-14T05:20:45;3.27;76.05
68378;DHT22;55322;48.146;11.516;2024-02-14T05:23:10;3.27;76.52
68378;DHT22;55322;48.146;11.516;2024-02-14T05:25:36;3.26;76.62
68378;DHT22;55322;48.146;11.516;2024-02-14T05:28:01;3.24;76.39
68378;DHT22;55322;48.146;11.516;2024-02-14T05:30:27;3.23;76.24
68378;DHT22;55322;48.146;11.516;2024-02-14T05:32:52;3.23;76.26
68378;DHT22;55322;48.146;11.516;2024-02-14T05:35:18;3.23;76.29
68378;DHT22;55322;48.146;11.516;2024-02-14T05:37:43;3.23;76.86
68378;DHT22;55322;48.146;11.516;2024-02-14T05:40:09;3.30;76.16
68378;DHT22;55322;48.146;11.516;2024-02-14T05:42:34;3.30;77.17
68378;DHT22;55322;48.146;11.516;2024-02-14T05:44:59;3.31;76.66
68378;DHT22;55322;48.146;11.516;2024-02-14T05:47:25;3.34;76.33
68378;DHT22;55322;48.146;11.516;2024-02-14T05:49:51;3.40;76.00
68378;DHT22;55322;48.146;11.516;2024-02-14T05:52:16;3.44;76.04
68378;DHT22;55322;48.146;11.516;2024-02-14T05:54:43;3.50;76.15
68378;DHT22;55322;48.146;11.516;2024-02-14T05:57:09;3.54;75.41
68378;DHT22;55322;48.146;11.516;2024-02-14T05:59:34;3.63;74.67
68378;DHT22;55322;48.146;11.516;2024-02-14T06:01:59;3.64;75.43
68378;DHT22;55322;48.146;11.516;2024-02-14T06:04:30;3.63;75.51
68378;DHT22;55322;48.146;11.516;2024-02-14T06:06:56;3.60;75.33
68378;DHT22;55322;48.146;11.516;2024-02-14T06:09:21;3.63;74.91
68378;DHT22;55322;48.146;11.516;2024-02-14T06:11:46;3.65;74.48
68378;DHT22;55322;48.146;11.516;2024-02-14T06:14:12;3.70;74.45
68378;DHT22;55322;48.146;11.516;2024-02-14T06:16:38;3.74;74.96
68378;DHT22;55322;48.146;11.516;2024-02-14T06:19:04;3.81;73.88
68378;DHT22;55322;48.146;11.516;2024-02-14T06:21:30;3.79;75.11
68378;DHT22;55322;48.146;11.516;2024-02-14T06:23:55;3.77;74.67
68378;DHT22;55322;48.146;11.516;2024-02-14T06:26:21;3.79;75.09
68378;DHT22;55322;48.146;11.516;2024-02-14T06:28:46;3.78;74.53
68378;DHT22;55322;48.146;11.516;2024-02-14T06:31:11;3.85;75.76
68378;DHT22;55322;48.146;11.516;2024-02-14T06:33:37;3.91;74.44
68378;DHT22;55322;48.146;11.516;2024-02-14T06:36:03;4.01;74.72
68378;DHT22;55322;48.146;11.516;2024-02-14T06:38:28;4.03;75.16
68378;DHT22;55322;48.146;11.516;2024-02-14T06:40:54;4.06;74.88
68378;DHT22;55322;48.146;11.516;2024-02-14T06:43:19;4.12;75.25
68378;DHT22;55322;48.146;11.516;2024-02-14T06:45:45;4.15;75.18
68378;DHT22;55322;48.146;11.516;2024-02-14T06:48:11;4.06;76.81
68378;DHT22;55322;48.146;11.516;2024-02-14T06:50:36;4.05;77.43
68378;DHT22;55322;48.146;11.516;2024-02-14T06:53:02;4.12;76.02
68378;DHT22;55322;48.146;11.516;2024-02-14T06:55:27;4.30;75.35
68378;DHT22;55322;48.146;11.516;2024-02-14T06:57:54;4.46;75.43
68378;DHT22;55322;48.146;11.516;2024-02-14T07:00:19;4.62;74.48
68378;DHT22;55322;48.146;11.516;2024-02-14T07:02:45;4.80;73.24
68378;DHT22;55322;48.146;11.516;2024-02-14T07:05:13;4.91;74.00
68378;DHT22;55322;48.146;11.516;2024-02-14T07:07:40;5.03;71.94
68378;DHT22;55322;48.146;11.516;2024-02-14T07:10:06;5.01;72.05
68378;DHT22;55322;48.146;11.516;2024-02-14T07:12:32;5.03;72.89
68378;DHT22;55322;48.146;11.516;2024-02-14T07:14:57;5.08;72.18
68378;DHT22;55322;48.146;11.516;2024-02-14T07:17:23;5.17;72.45
68378;DHT22;55322;48.146;11.516;2024-02-14T07:19:48;5.15;71.36
68378;DHT22;55322;48.146;11.516;2024-02-14T07:22:17;5.14;70.76
68378;DHT22;55322;48.146;11.516;2024-02-14T07:24:44;5.17;69.91
68378;DHT22;55322;48.146;11.516;2024-02-14T07:27:12;5.18;69.26
68378;DHT22;55322;48.146;11.516;2024-02-14T07:29:37;5.15;69.00
68378;DHT22;55322;48.146;11.516;2024-02-14T07:32:03;5.18;69.00
68378;DHT22;55322;48.146;11.516;2024-02-14T07:34:28;5.18;68.93
68378;DHT22;55322;48.146;11.516;2024-02-14T07:36:54;5.25;69.53
68378;DHT22;55322;48.146;11.516;2024-02-14T07:39:19;5.34;69.71
68378;DHT22;55322;48.146;11.516;2024-02-14T07:41:44;5.37;69.45
68378;DHT22;55322;48.146;11.516;2024-02-14T07:44:10;5.49;69.72
68378;DHT22;55322;48.146;11.516;2024-02-14T07:46:35;5.51;67.68
68378;DHT22;55322;48.146;11.516;2024-02-14T07:49:01;5.62;66.95
68378;DHT22;55322;48.146;11.516;2024-02-14T07:51:26;5.69;68.24
68378;DHT22;55322;48.146;11.516;2024-02-14T07:53:54;5.69;67.87
68378;DHT22;55322;48.146;11.516;2024-02-14T07:56:19;5.72;68.24
68378;DHT22;55322;48.146;11.516;2024-02-14T07:58:45;5.78;67.64
68378;DHT22;55322;48.146;11.516;2024-02-14T08:01:10;5.76;67.97
68378;DHT22;55322;48.146;11.516;2024-02-14T08:03:36;5.76;68.77
68378;DHT22;55322;48.146;11.516;2024-02-14T08:06:01;5.85;68.64
68378;DHT22;55322;48.146;11.516;2024-02-14T08:08:27;5.90;68.34
68378;DHT22;55322;48.146;11.516;2024-02-14T08:10:52;6.00;68.71
68378;DHT22;55322;48.146;11.516;2024-02-14T08:13:18;6.17;68.72
68378;DHT22;55322;48.146;11.516;2024-02-14T08:15:43;6.24;67.60
68378;DHT22;55322;48.146;11.516;2024-02-14T08:18:09;6.40;67.46
68378;DHT22;55322;48.146;11.516;2024-02-14T08:20:34;6.48;67.66
68378;DHT22;55322;48.146;11.516;2024-02-14T08:22:59;6.54;67.63
68378;DHT22;55322;48.146;11.516;2024-02-14T08:25:25;6.60;65.90
68378;DHT22;55322;48.146;11.516;2024-02-14T08:27:52;6.53;65.13
68378;DHT22;55322;48.146;11.516;2024-02-14T08:30:17;6.61;66.73
68378;DHT22;55322;48.146;11.516;2024-02-14T08:32:44;6.63;65.39
68378;DHT22;55322;48.146;11.516;2024-02-14T08:35:10;6.67;65.37
68378;DHT22;55322;48.146;11.516;2024-02-14T08:37:36;6.87;64.45
68378;DHT22;55322;48.146;11.516;2024-02-14T08:40:03;7.15;64.71
68378;DHT22;55322;48.146;11.516;2024-02-14T08:42:32;7.63;64.05
68378;DHT22;55322;48.146;11.516;2024-02-14T08:44:57;7.89;63.77
68378;DHT22;55322;48.146;11.516;2024-02-14T08:47:22;8.13;61.16
68378;DHT22;55322;48.146;11.516;2024-02-14T08:49:48;8.31;61.17
68378;DHT22;55322;48.146;11.516;2024-02-14T08:52:13;8.45;60.61
68378;DHT22;55322;48.146;11.516;2024-02-14T08:54:39;8.76;60.37
68378;DHT22;55322;48.146;11.516;2024-02-14T08:57:04;9.08;60.23
68378;DHT22;55322;48.146;11.516;2024-02-14T08:59:30;9.50;59.84
68378;DHT22;55322;48.146;11.516;2024-02-14T09:01:55;9.55;58.63
68378;DHT22;55322;48.146;11.516;2024-02-14T09:04:21;9.51;59.21
68378;DHT22;55322;48.146;11.516;2024-02-14T09:06:46;9.70;58.80
68378;DHT22;55322;48.146;11.516;2024-02-14T09:09:12;10.15;56.90
68378;DHT22;55322;48.146;11.516;2024-02-14T09:11:39;12.30;50.74
68378;DHT22;55322;48.146;11.516;2024-02-14T09:14:06;13.17;47.62
68378;DHT22;55322;48.146;11.516;2024-02-14T09:16:32;13.11;48.42
68378;DHT22;55322;48.146;11.516;2024-02-14T09:18:59;12.93;48.43
68378;DHT22;55322;48.146;11.516;2024-02-14T09:21:24;12.62;48.30
68378;DHT22;55322;48.146;11.516;2024-02-14T09:23:49;12.25;48.49
68378;DHT22;55322;48.146;11.516;2024-02-14T09:26:15;12.05;51.51
68378;DHT22;55322;48.146;11.516;2024-02-14T09:28:43;11.73;49.67
68378;DHT22;55322;48.146;11.516;2024-02-14T09:31:09;11.63;51.06
68378;DHT22;55322;48.146;11.516;2024-02-14T09:33:38;11.50;51.26
68378;DHT22;55322;48.146;11.516;2024-02-14T09:36:04;11.31;52.34
68378;DHT22;55322;48.146;11.516;2024-02-14T09:38:30;11.43;52.76
68378;DHT22;55322;48.146;11.516;2024-02-14T09:41:15;11.54;51.22
68378;DHT22;55322;48.146;11.516;2024-02-14T09:43:45;11.35;52.94
68378;DHT22;55322;48.146;11.516;2024-02-14T09:46:14;11.03;53.70
68378;DHT22;55322;48.146;11.516;2024-02-14T09:48:44;10.99;55.22
68378;DHT22;55322;48.146;11.516;2024-02-14T09:51:10;10.93;54.30
68378;DHT22;55322;48.146;11.516;2024-02-14T09:53:36;10.89;54.03
68378;DHT22;55322;48.146;11.516;2024-02-14T09:56:02;10.86;54.52
68378;DHT22;55322;48.146;11.516;2024-02-14T09:58:28;10.76;55.44
68378;DHT22;55322;48.146;11.516;2024-02-14T10:00:54;10.80;55.40
68378;DHT22;55322;48.146;11.516;2024-02-14T10:03:19;10.82;54.66
68378;DHT22;55322;48.146;11.516;2024-02-14T10:05:45;10.82;53.33
68378;DHT22;55322;48.146;11.516;2024-02-14T10:08:11;10.92;53.92
68378;DHT22;55322;48.146;11.516;2024-02-14T10:10:37;11.12;53.95
68378;DHT22;55322;48.146;11.516;2024-02-14T10:13:04;11.38;53.04
68378;DHT22;55322;48.146;11.516;2024-02-14T10:15:31;11.75;52.27
68378;DHT22;55322;48.146;11.516;2024-02-14T10:17:58;12.14;52.19
68378;DHT22;55322;48.146;11.516;2024-02-14T10:20:24;12.42;50.29
68378;DHT22;55322;48.146;11.516;2024-02-14T10:22:50;12.90;48.30
68378;DHT22;55322;48.146;11.516;2024-02-14T10:25:15;12.90;46.83
68378;DHT22;55322;48.146;11.516;2024-02-14T10:27:44;12.97;47.02
68378;DHT22;55322;48.146;11.516;2024-02-14T10:30:10;13.20;49.58
68378;DHT22;55322;48.146;11.516;2024-02-14T10:32:39;13.10;48.85
68378;DHT22;55322;48.146;11.516;2024-02-14T10:35:06;13.45;48.10
68378;DHT22;55322;48.146;11.516;2024-02-14T10:37:37;14.39;46.95
68378;DHT22;55322;48.146;11.516;2024-02-14T10:40:03;14.80;44.72
68378;DHT22;55322;48.146;11.516;2024-02-14T10:42:30;15.59;44.93
68378;DHT22;55322;48.146;11.516;2024-02-14T10:44:56;16.54;44.13
68378;DHT22;55322;48.146;11.516;2024-02-14T10:47:25;17.01;42.69
68378;DHT22;55322;48.146;11.516;2024-02-14T10:49:57;17.26;41.57
68378;DHT22;55322;48.146;11.516;2024-02-14T10:52:23;17.76;42.00
68378;DHT22;55322;48.146;11.516;2024-02-14T10:54:54;18.54;40.34
68378;DHT22;55322;48.146;11.516;2024-02-14T10:57:24;17.97;39.05
68378;DHT22;55322;48.146;11.516;2024-02-14T10:59:50;16.96;42.30
68378;DHT22;55322;48.146;11.516;2024-02-14T11:02:17;16.29;43.11
68378;DHT22;55322;48.146;11.516;2024-02-14T11:04:43;16.00;43.18
68378;DHT22;55322;48.146;11.516;2024-02-14T11:07:10;15.78;44.26
68378;DHT22;55322;48.146;11.516;2024-02-14T11:09:39;15.34;43.93
68378;DHT22;55322;48.146;11.516;2024-02-14T11:12:09;15.10;45.31
68378;DHT22;55322;48.146;11.516;2024-02-14T11:14:35;14.73;45.90
68378;DHT22;55322;48.146;11.516;2024-02-14T11:17:04;14.73;47.10
68378;DHT22;55322;48.146;11.516;2024-02-14T11:19:34;14.93;46.64
68378;DHT22;55322;48.146;11.516;2024-02-14T11:22:20;15.05;47.74
68378;DHT22;55322;48.146;11.516;2024-02-14T11:24:47;15.00;46.00
68378;DHT22;55322;48.146;11.516;2024-02-14T11:27:14;14.90;47.40
68378;DHT22;55322;48.146;11.516;2024-02-14T11:29:40;14.69;46.68
68378;DHT22;55322;48.146;11.516;2024-02-14T11:32:07;14.57;48.38
68378;DHT22;55322;48.146;11.516;2024-02-14T11:34:35;14.36;48.35
68378;DHT22;55322;48.146;11.516;2024-02-14T11:37:01;14.08;49.38
68378;DHT22;55322;48.146;11.516;2024-02-14T11:39:26;14.10;54.34
68378;DHT22;55322;48.146;11.516;2024-02-14T11:41:52;14.23;51.67
68378;DHT22;55322;48.146;11.516;2024-02-14T11:44:19;14.22;51.28
68378;DHT22;55322;48.146;11.516;2024-02-14T11:46:47;14.15;49.91
68378;DHT22;55322;48.146;11.516;2024-02-14T11:49:12;14.08;49.58
68378;DHT22;55322;48.146;11.516;2024-02-14T11:51:38;13.94;49.47
68378;DHT22;55322;48.146;11.516;2024-02-14T11:54:07;13.88;50.33
68378;DHT22;55322;48.146;11.516;2024-02-14T11:56:37;13.71;50.83
68378;DHT22;55322;48.146;11.516;2024-02-14T11:59:03;13.75;50.70
68378;DHT22;55322;48.146;11.516;2024-02-14T12:01:31;13.81;51.96
68378;DHT22;55322;48.146;11.516;2024-02-14T12:04:00;13.88;51.03
68378;DHT22;55322;48.146;11.516;2024-02-14T12:06:30;14.01;52.03
68378;DHT22;55322;48.146;11.516;2024-02-14T12:09:03;14.08;50.17
68378;DHT22;55322;48.146;11.516;2024-02-14T12:11:38;14.15;51.48
68378;DHT22;55322;48.146;11.516;2024-02-14T12:14:07;14.40;50.84
68378;DHT22;55322;48.146;11.516;2024-02-14T12:16:36;14.71;50.51
68378;DHT22;55322;48.146;11.516;2024-02-14T12:19:07;14.80;49.71
68378;DHT22;55322;48.146;11.516;2024-02-14T12:21:36;14.79;49.78
68378;DHT22;55322;48.146;11.516;2024-02-14T12:24:12;14.81;49.51
68378;DHT22;55322;48.146;11.516;2024-02-14T12:26:40;14.81;48.39
68378;DHT22;55322;48.146;11.516;2024-02-14T12:29:06;14.71;49.85
68378;DHT22;55322;48.146;11.516;2024-02-14T12:31:33;14.47;50.79
68378;DHT22;55322;48.146;11.516;2024-02-14T12:33:59;14.28;49.68
68378;DHT22;55322;48.146;11.516;2024-02-14T12:36:30;14.29;48.26
68378;DHT22;55322;48.146;11.516;2024-02-14T12:38:56;14.29;48.82
68378;DHT22;55322;48.146;11.516;2024-02-14T12:41:22;14.64;48.59
68378;DHT22;55322;48.146;11.516;2024-02-14T12:43:49;14.73;48.19
68378;DHT22;55322;48.146;11.516;2024-02-14T12:46:14;14.69;49.65
68378;DHT22;55322;48.146;11.516;2024-02-14T12:48:40;14.55;48.68
68378;DHT22;55322;48.146;11.516;2024-02-14T12:51:07;14.30;47.39
68378;DHT22;55322;48.146;11.516;2024-02-14T12:53:33;13.98;50.72
68378;DHT22;55322;48.146;11.516;2024-02-14T12:55:59;13.69;56.46
68378;DHT22;55322;48.146;11.516;2024-02-14T12:58:24;13.37;56.22
68378;DHT22;55322;48.146;11.516;2024-02-14T13:00:50;13.03;57.37
68378;DHT22;55322;48.146;11.516;2024-02-14T13:03:15;12.84;62.65
68378;DHT22;55322;48.146;11.516;2024-02-14T13:05:40;12.66;62.91
68378;DHT22;55322;48.146;11.516;2024-02-14T13:08:07;12.69;61.22
68378;DHT22;55322;48.146;11.516;2024-02-14T13:10:32;12.67;61.21
68378;DHT22;55322;48.146;11.516;2024-02-14T13:12:58;12.72;63.25
68378;DHT22;55322;48.146;11.516;2024-02-14T13:15:23;12.92;62.63
68378;DHT22;55322;48.146;11.516;2024-02-14T13:17:48;12.94;61.81
68378;DHT22;55322;48.146;11.516;2024-02-14T13:20:14;13.08;60.82
68378;DHT22;55322;48.146;11.516;2024-02-14T13:22:41;13.15;60.00
68378;DHT22;55322;48.146;11.516;2024-02-14T13:25:07;13.18;60.93
68378;DHT22;55322;48.146;11.516;2024-02-14T13:27:32;13.23;59.73
68378;DHT22;55322;48.146;11.516;2024-02-14T13:29:58;13.27;59.49
68378;DHT22;55322;48.146;11.516;2024-02-14T13:32:24;13.18;59.16
68378;DHT22;55322;48.146;11.516;2024-02-14T13:34:49;13.17;60.06
68378;DHT22;55322;48.146;11.516;2024-02-14T13:37:15;13.20;60.48
68378;DHT22;55322;48.146;11.516;2024-02-14T13:39:44;13.21;60.53
68378;DHT22;55322;48.146;11.516;2024-02-14T13:42:10;13.28;60.15
68378;DHT22;55322;48.146;11.516;2024-02-14T13:44:35;13.27;58.46
68378;DHT22;55322;48.146;11.516;2024-02-14T13:47:00;13.38;59.65
68378;DHT22;55322;48.146;11.516;2024-02-14T13:49:26;13.45;59.18
68378;DHT22;55322;48.146;11.516;2024-02-14T13:51:53;13.54;58.72
68378;DHT22;55322;48.146;11.516;2024-02-14T13:54:19;13.65;57.17
68378;DHT22;55322;48.146;11.516;2024-02-14T13:56:44;13.79;57.54
68378;DHT22;55322;48.146;11.516;2024-02-14T13:59:10;13.90;55.85
68378;DHT22;55322;48.146;11.516;2024-02-14T14:01:36;13.90;55.51
68378;DHT22;55322;48.146;11.516;2024-02-14T14:04:02;13.90;55.20
68378;DHT22;55322;48.146;11.516;2024-02-14T14:06:29;13.89;55.76
68378;DHT22;55322;48.146;11.516;2024-02-14T14:08:54;13.90;55.39
68378;DHT22;55322;48.146;11.516;2024-02-14T14:11:20;13.98;55.65
68378;DHT22;55322;48.146;11.516;2024-02-14T14:13:45;14.12;54.96
68378;DHT22;55322;48.146;11.516;2024-02-14T14:16:10;14.19;55.70
68378;DHT22;55322;48.146;11.516;2024-02-14T14:18:36;14.26;55.66
68378;DHT22;55322;48.146;11.516;2024-02-14T14:21:03;14.36;54.80
68378;DHT22;55322;48.146;11.516;2024-02-14T14:23:29;14.40;56.10
68378;DHT22;55322;48.146;11.516;2024-02-14T14:25:54;14.30;54.97
68378;DHT22;55322;48.146;11.516;2024-02-14T14:28:19;14.30;54.85
68378;DHT22;55322;48.146;11.516;2024-02-14T14:30:50;14.13;56.27
68378;DHT22;55322;48.146;11.516;2024-02-14T14:33:16;13.98;56.43
68378;DHT22;55322;48.146;11.516;2024-02-14T14:35:41;13.99;57.99
68378;DHT22;55322;48.146;11.516;2024-02-14T14:38:07;13.99;56.81
68378;DHT22;55322;48.146;11.516;2024-02-14T14:40:32;13.86;57.81
68378;DHT22;55322;48.146;11.516;2024-02-14T14:42:58;13.85;56.32
68378;DHT22;55322;48.146;11.516;2024-02-14T14:45:23;13.68;57.58
68378;DHT22;55322;48.146;11.516;2024-02-14T14:47:49;13.65;57.04
68378;DHT22;55322;48.146;11.516;2024-02-14T14:50:15;13.68;58.06
68378;DHT22;55322;48.146;11.516;2024-02-14T14:52:44;13.72;57.96
68378;DHT22;55322;48.146;11.516;2024-02-14T14:55:10;13.65;57.60
68378;DHT22;55322;48.146;11.516;2024-02-14T14:57:36;13.57;58.46
68378;DHT22;55322;48.146;11.516;2024-02-14T15:00:09;13.58;58.23
68378;DHT22;55322;48.146;11.516;2024-02-14T15:02:41;13.58;59.28
68378;DHT22;55322;48.146;11.516;2024-02-14T15:05:11;13.44;59.46
68378;DHT22;55322;48.146;11.516;2024-02-14T15:07:38;13.33;60.06
68378;DHT22;55322;48.146;11.516;2024-02-14T15:10:04;13.23;60.60
68378;DHT22;55322;48.146;11.516;2024-02-14T15:12:30;13.17;60.82
68378;DHT22;55322;48.146;11.516;2024-02-14T15:14:55;13.06;61.58
68378;DHT22;55322;48.146;11.516;2024-02-14T15:17:21;12.80;61.90
68378;DHT22;55322;48.146;11.516;2024-02-14T15:19:48;12.60;62.89